Time;durP1;ratioP1;P1;durP2;ratioP2;P2;SDS_P1;SDS_P2;PMS_P1;PMS_P2;Temp;Humidity;BMP_temperature;BMP_pressure;BME280_temperature;BME280_humidity;BME280_pressure;Samples;Min_cycle;Max_cycle;Signal;HPM_P1;HPM_P2
2024/01/04 00:01:24;;;;;;;0.80;0.43;;;9.30;1.00;;;;;;5010727;28;20071;-80
2024/01/04 00:03:52;;;;;;;0.85;0.30;;;9.40;1.00;;;;;;5025975;28;20048;-80
2024/01/04 00:06:20;;;;;;;1.05;0.50;;;9.40;1.00;;;;;;5009494;28;20059;-80
2024/01/04 00:08:47;;;;;;;0.70;0.40;;;9.40;1.00;;;;;;5009382;28;20053;-80
2024/01/04 00:11:14;;;;;;;1.35;0.70;;;9.40;1.00;;;;;;5031300;28;20407;-80
2024/01/04 00:13:41;;;;;;;1.13;0.43;;;9.40;1.00;;;;;;5003807;28;20476;-80
2024/01/04 00:16:11;;;;;;;1.10;0.68;;;9.40;1.00;;;;;;5024014;28;20544;-81
2024/01/04 00:18:38;;;;;;;1.42;0.80;;;9.40;1.00;;;;;;5026020;28;20045;-79
2024/01/04 00:21:06;;;;;;;1.67;0.50;;;9.40;1.00;;;;;;5025525;28;20072;-80
2024/01/04 00:23:34;;;;;;;3.50;0.90;;;9.40;1.00;;;;;;5024747;28;20045;-80
2024/01/04 00:26:03;;;;;;;1.50;0.68;;;9.40;1.00;;;;;;5003600;28;20049;-80
2024/01/04 00:28:31;;;;;;;1.23;0.47;;;9.40;99.90;;;;;;5018685;28;20151;-80
2024/01/04 00:30:58;;;;;;;2.17;0.70;;;9.40;99.90;;;;;;5005960;28;20112;-79
2024/01/04 00:33:25;;;;;;;1.52;0.60;;;9.30;1.00;;;;;;4989402;28;20053;-80
2024/01/04 00:35:52;;;;;;;0.85;0.50;;;9.30;1.00;;;;;;5021615;28;20050;-80
2024/01/04 00:38:19;;;;;;;0.80;0.50;;;9.30;99.90;;;;;;5021648;28;20049;-80
2024/01/04 00:40:46;;;;;;;1.15;0.40;;;9.30;99.90;;;;;;5022881;28;20053;-80
2024/01/04 00:43:13;;;;;;;0.75;0.40;;;9.30;99.90;;;;;;5001561;28;20049;-79
2024/01/04 00:45:42;;;;;;;1.50;0.52;;;9.30;99.90;;;;;;5010092;28;20415;-81
2024/01/04 00:48:09;;;;;;;1.13;0.40;;;9.30;99.90;;;;;;5041874;28;20056;-80
2024/01/04 00:50:37;;;;;;;2.83;0.70;;;9.30;99.90;;;;;;5025641;28;20052;-80
2024/01/04 00:53:04;;;;;;;3.20;0.80;;;9.30;99.90;;;;;;5024908;28;20053;-80
2024/01/04 00:55:36;;;;;;;1.00;0.40;;;9.30;99.90;;;;;;5006863;28;20045;-79
2024/01/04 00:58:03;;;;;;;1.73;0.55;;;9.30;99.90;;;;;;5005969;28;20054;-80
2024/01/04 01:00:31;;;;;;;0.40;0.30;;;9.30;99.90;;;;;;5006105;28;20503;-79
2024/01/04 01:02:58;;;;;;;0.75;0.32;;;9.30;99.90;;;;;;5013216;28;20057;-80
2024/01/04 01:05:26;;;;;;;1.15;0.35;;;9.20;99.90;;;;;;5000295;28;20520;-80
2024/01/04 01:07:52;;;;;;;1.45;0.50;;;9.20;99.90;;;;;;4988025;28;20699;-80
2024/01/04 01:10:19;;;;;;;0.65;0.52;;;9.20;99.90;;;;;;4989492;28;20138;-79
2024/01/04 01:12:46;;;;;;;0.40;0.40;;;9.10;99.90;;;;;;4997107;28;20052;-79
2024/01/04 01:15:13;;;;;;;0.68;0.40;;;9.10;99.90;;;;;;5024974;28;20071;-80
2024/01/04 01:17:41;;;;;;;0.38;0.25;;;9.00;99.90;;;;;;5041994;28;20048;-80
2024/01/04 01:20:08;;;;;;;1.83;0.52;;;9.00;99.90;;;;;;5025227;28;20592;-80
2024/01/04 01:22:35;;;;;;;0.65;0.38;;;9.00;99.90;;;;;;5025208;28;20391;-79
2024/01/04 01:25:04;;;;;;;1.77;0.30;;;9.00;1.00;;;;;;5025462;28;20926;-80
2024/01/04 01:27:32;;;;;;;0.75;0.30;;;8.90;1.00;;;;;;5041902;28;20422;-79
2024/01/04 01:29:58;;;;;;;0.57;0.35;;;8.90;1.00;;;;;;5025387;28;20060;-80
2024/01/04 01:32:26;;;;;;;0.80;0.32;;;8.90;1.00;;;;;;5004655;28;20048;-80
2024/01/04 01:34:54;;;;;;;1.50;0.32;;;8.90;1.00;;;;;;5017164;28;20058;-80
2024/01/04 01:37:21;;;;;;;0.50;0.45;;;8.90;1.00;;;;;;5025079;28;20127;-80
2024/01/04 01:39:48;;;;;;;1.33;0.60;;;8.90;1.00;;;;;;5026881;28;20486;-80
2024/01/04 01:42:16;;;;;;;0.60;0.40;;;8.90;1.00;;;;;;5042793;28;20058;-80
2024/01/04 01:44:43;;;;;;;0.52;0.30;;;8.90;1.00;;;;;;5008756;28;20053;-82
2024/01/04 01:47:10;;;;;;;1.13;0.45;;;9.00;1.00;;;;;;4993393;28;20508;-80
2024/01/04 01:49:37;;;;;;;0.60;0.30;;;9.00;1.00;;;;;;4993099;28;20060;-80
2024/01/04 01:52:05;;;;;;;1.15;0.70;;;9.00;1.00;;;;;;5008570;28;20103;-80
2024/01/04 01:54:32;;;;;;;0.82;0.35;;;9.10;1.00;;;;;;5008316;28;20543;-80
2024/01/04 01:57:00;;;;;;;1.92;0.55;;;9.10;1.00;;;;;;5025473;28;20041;-80
2024/01/04 01:59:27;;;;;;;3.92;0.60;;;9.00;1.00;;;;;;5024969;28;20136;-79
2024/01/04 02:01:55;;;;;;;2.10;0.43;;;9.10;12.20;;;;;;5009152;28;20049;-80
2024/01/04 02:04:22;;;;;;;0.77;0.40;;;9.00;18.60;;;;;;5018981;28;20049;-80
2024/01/04 02:06:49;;;;;;;0.88;0.40;;;9.00;1.00;;;;;;5024458;28;20045;-79
2024/01/04 02:09:16;;;;;;;1.20;0.40;;;9.10;1.00;;;;;;5024896;28;20049;-80
2024/01/04 02:11:44;;;;;;;0.75;0.35;;;9.10;1.00;;;;;;5025359;28;20053;-80
2024/01/04 02:14:11;;;;;;;0.50;0.40;;;9.10;1.00;;;;;;5008027;28;20093;-80
2024/01/04 02:16:39;;;;;;;0.93;0.43;;;9.10;1.00;;;;;;5008806;28;20060;-80
2024/01/04 02:19:07;;;;;;;2.65;0.50;;;9.10;1.00;;;;;;5025012;28;20049;-80
2024/01/04 02:21:37;;;;;;;0.75;0.40;;;9.10;1.00;;;;;;4992106;28;20460;-79
2024/01/04 02:24:05;;;;;;;0.82;0.30;;;9.20;1.00;;;;;;5003006;28;20119;-80
2024/01/04 02:26:32;;;;;;;0.90;0.50;;;9.20;99.90;;;;;;5008664;28;20240;-80
2024/01/04 02:28:59;;;;;;;0.77;0.38;;;9.20;99.90;;;;;;5008422;28;20053;-80
2024/01/04 02:31:26;;;;;;;0.65;0.40;;;9.20;99.90;;;;;;5039169;28;20095;-79
2024/01/04 02:33:53;;;;;;;0.38;0.32;;;9.20;99.90;;;;;;5041185;28;20080;-80
2024/01/04 02:36:21;;;;;;;1.00;0.55;;;9.20;99.90;;;;;;4992132;28;20068;-79
2024/01/04 02:38:48;;;;;;;1.58;0.50;;;9.20;99.90;;;;;;5009826;28;20057;-79
2024/01/04 02:41:16;;;;;;;0.43;0.32;;;9.20;99.90;;;;;;5012199;28;20056;-79
2024/01/04 02:43:43;;;;;;;1.25;0.30;;;9.20;99.90;;;;;;5041694;28;20064;-80
2024/01/04 02:46:10;;;;;;;0.70;0.40;;;9.20;99.90;;;;;;5029794;28;20049;-80
2024/01/04 02:48:37;;;;;;;0.47;0.40;;;9.20;99.90;;;;;;5026842;28;20100;-80
2024/01/04 02:51:04;;;;;;;2.72;0.52;;;9.10;99.90;;;;;;5009141;28;20150;-80
2024/01/04 02:53:31;;;;;;;0.95;0.57;;;9.10;99.90;;;;;;5005336;28;20487;-80
2024/01/04 02:55:58;;;;;;;1.65;1.20;;;9.20;99.90;;;;;;5012210;28;20056;-80
2024/01/04 02:58:26;;;;;;;2.38;0.90;;;9.20;99.90;;;;;;5036014;28;20411;-79
2024/01/04 03:00:53;;;;;;;1.50;0.52;;;9.20;99.90;;;;;;5026161;28;20236;-80
2024/01/04 03:03:20;;;;;;;1.05;0.40;;;9.10;99.90;;;;;;5007648;28;20077;-79
2024/01/04 03:05:47;;;;;;;0.68;0.30;;;9.10;99.90;;;;;;5025725;28;20481;-80
2024/01/04 03:08:14;;;;;;;0.85;0.40;;;9.10;99.90;;;;;;5038788;28;20431;-80
2024/01/04 03:10:41;;;;;;;0.80;0.50;;;9.10;99.90;;;;;;5025791;28;20687;-80
2024/01/04 03:13:08;;;;;;;0.60;0.30;;;9.10;99.90;;;;;;5029011;28;20045;-80
2024/01/04 03:15:35;;;;;;;0.88;0.40;;;9.10;99.90;;;;;;5045781;28;20048;-80
2024/01/04 03:18:02;;;;;;;0.30;0.20;;;9.10;99.90;;;;;;5029363;28;20057;-80
2024/01/04 03:20:30;;;;;;;1.00;0.40;;;9.10;99.90;;;;;;5028690;28;20045;-80
2024/01/04 03:22:57;;;;;;;2.00;0.70;;;9.10;99.90;;;;;;5037906;28;20057;-80
2024/01/04 03:25:24;;;;;;;1.58;0.70;;;9.10;99.90;;;;;;4993490;28;20061;-79
2024/01/04 03:27:51;;;;;;;0.63;0.35;;;9.10;99.90;;;;;;4993140;28;20057;-80
2024/01/04 03:30:19;;;;;;;1.50;0.60;;;9.10;99.90;;;;;;4992839;28;20131;-80
2024/01/04 03:32:47;;;;;;;0.95;0.50;;;9.10;99.90;;;;;;5008675;28;20057;-80
2024/01/04 03:35:14;;;;;;;0.88;0.55;;;9.10;99.90;;;;;;4992915;28;20049;-79
2024/01/04 03:37:41;;;;;;;2.00;0.77;;;9.10;99.90;;;;;;4993394;28;20048;-80
2024/01/04 03:40:08;;;;;;;1.77;0.50;;;9.10;99.90;;;;;;5024545;28;20053;-80
2024/01/04 03:42:36;;;;;;;0.85;0.50;;;9.10;99.90;;;;;;5008807;28;20049;-80
2024/01/04 03:45:07;;;;;;;1.15;0.30;;;9.00;99.90;;;;;;5024775;28;20049;-79
2024/01/04 03:47:34;;;;;;;0.95;0.50;;;9.10;99.90;;;;;;5024901;28;20558;-80
2024/01/04 03:50:02;;;;;;;1.30;0.50;;;9.00;99.90;;;;;;5024501;28;20466;-80
2024/01/04 03:52:31;;;;;;;1.35;0.40;;;9.00;99.90;;;;;;4992362;28;20045;-80
2024/01/04 03:54:58;;;;;;;1.17;0.40;;;8.90;99.90;;;;;;5008785;28;20053;-80
2024/01/04 03:57:24;;;;;;;0.95;0.50;;;8.90;99.90;;;;;;5009569;28;20045;-79
2024/01/04 03:59:51;;;;;;;1.30;0.57;;;8.90;99.90;;;;;;5008772;28;20103;-80
2024/01/04 04:02:18;;;;;;;1.25;0.57;;;8.90;99.90;;;;;;5009192;28;20053;-80
2024/01/04 04:04:45;;;;;;;1.83;0.50;;;8.80;99.90;;;;;;4992730;28;20139;-79
2024/01/04 04:07:12;;;;;;;1.63;0.80;;;8.80;99.90;;;;;;5007364;28;20049;-79
2024/01/04 04:09:39;;;;;;;1.48;0.88;;;8.70;99.90;;;;;;5044793;28;20475;-79
2024/01/04 04:12:07;;;;;;;1.67;0.50;;;8.70;99.90;;;;;;5045131;28;20053;-79
2024/01/04 04:14:34;;;;;;;1.08;0.52;;;8.60;99.90;;;;;;5025397;28;20195;-79
2024/01/04 04:17:01;;;;;;;2.13;0.77;;;8.50;99.90;;;;;;4992509;28;20092;-80
2024/01/04 04:19:28;;;;;;;2.30;0.82;;;8.50;99.90;;;;;;4992717;28;20060;-80
2024/01/04 04:21:55;;;;;;;1.58;0.80;;;8.40;99.90;;;;;;4991601;28;20546;-80
2024/01/04 04:24:23;;;;;;;1.33;0.50;;;8.40;99.90;;;;;;5022153;28;20103;-79
2024/01/04 04:26:51;;;;;;;2.35;0.65;;;8.30;99.90;;;;;;5009188;28;20355;-79
2024/01/04 04:29:18;;;;;;;2.17;0.60;;;8.20;99.90;;;;;;5024621;28;20038;-80
2024/01/04 04:31:48;;;;;;;1.00;0.45;;;8.20;99.90;;;;;;5007979;28;20057;-79
2024/01/04 04:34:15;;;;;;;1.67;0.57;;;8.20;99.90;;;;;;5024396;28;20072;-80
2024/01/04 04:36:42;;;;;;;1.33;0.80;;;8.20;99.90;;;;;;5027796;28;20057;-80
2024/01/04 04:39:09;;;;;;;1.80;0.47;;;8.10;99.90;;;;;;5045258;28;20068;-80
2024/01/04 04:41:37;;;;;;;0.70;0.40;;;8.10;99.90;;;;;;5028554;28;20057;-80
2024/01/04 04:44:04;;;;;;;2.65;0.63;;;8.00;99.90;;;;;;5011904;28;20055;-80
2024/01/04 04:46:31;;;;;;;1.23;0.60;;;8.00;99.90;;;;;;5011849;28;20045;-80
2024/01/04 04:48:58;;;;;;;2.42;0.57;;;8.00;99.90;;;;;;5028456;28;20157;-80
2024/01/04 04:51:27;;;;;;;1.40;0.60;;;8.00;99.90;;;;;;5027878;28;20071;-80
2024/01/04 04:53:53;;;;;;;2.40;0.60;;;7.90;99.90;;;;;;5027294;28;20071;-80
2024/01/04 04:56:20;;;;;;;2.33;0.60;;;7.90;99.90;;;;;;5012092;28;20060;-79
2024/01/04 04:58:48;;;;;;;1.15;0.52;;;7.90;99.90;;;;;;5028110;28;20379;-79
2024/01/04 05:01:15;;;;;;;3.05;0.70;;;7.90;99.90;;;;;;5028301;28;20057;-80
2024/01/04 05:03:41;;;;;;;1.38;0.40;;;7.80;99.90;;;;;;5028073;28;20060;-80
2024/01/04 05:06:10;;;;;;;1.73;0.60;;;7.80;99.90;;;;;;5027436;28;20056;-80
2024/01/04 05:08:38;;;;;;;2.55;0.82;;;7.80;99.90;;;;;;5011391;28;20089;-80
2024/01/04 05:11:06;;;;;;;0.98;0.60;;;7.80;99.90;;;;;;5044443;28;20060;-80
2024/01/04 05:13:33;;;;;;;3.55;0.80;;;7.80;99.90;;;;;;5027562;28;20630;-79
2024/01/04 05:16:00;;;;;;;3.55;1.35;;;7.80;99.90;;;;;;5049186;28;20110;-80
2024/01/04 05:18:27;;;;;;;2.25;0.90;;;7.70;99.90;;;;;;5031825;28;20060;-79
2024/01/04 05:20:54;;;;;;;2.47;0.55;;;7.70;99.90;;;;;;5031350;28;20446;-79
2024/01/04 05:23:22;;;;;;;3.40;0.70;;;7.70;99.90;;;;;;5030582;28;20134;-80
2024/01/04 05:25:49;;;;;;;3.13;1.20;;;7.70;99.90;;;;;;5031947;28;20051;-80
2024/01/04 05:28:16;;;;;;;2.40;0.90;;;7.60;99.90;;;;;;5048189;28;20048;-80
2024/01/04 05:30:43;;;;;;;1.77;0.70;;;7.60;99.90;;;;;;5031543;28;20263;-80
2024/01/04 05:33:10;;;;;;;2.97;1.15;;;7.60;99.90;;;;;;5031214;28;20122;-79
2024/01/04 05:35:38;;;;;;;5.05;1.15;;;7.60;99.90;;;;;;5030753;28;20049;-79
2024/01/04 05:38:05;;;;;;;2.08;0.90;;;7.60;99.90;;;;;;5014170;28;20168;-79
2024/01/04 05:40:32;;;;;;;2.63;0.77;;;7.60;99.90;;;;;;5031919;28;20045;-80
2024/01/04 05:42:59;;;;;;;3.80;1.13;;;7.50;99.90;;;;;;5030923;28;20061;-80
2024/01/04 05:45:26;;;;;;;1.92;0.70;;;7.50;99.90;;;;;;5030936;28;20060;-80
2024/01/04 05:47:53;;;;;;;2.92;0.95;;;7.50;99.90;;;;;;5043715;28;20049;-80
2024/01/04 05:50:20;;;;;;;1.83;0.95;;;7.50;99.90;;;;;;5012864;28;20791;-80
2024/01/04 05:52:47;;;;;;;2.17;0.82;;;7.50;99.90;;;;;;5010136;28;20086;-80
2024/01/04 05:55:15;;;;;;;5.65;1.00;;;7.50;99.90;;;;;;5009151;28;20080;-80
2024/01/04 05:57:43;;;;;;;4.90;1.00;;;7.40;99.90;;;;;;5009065;28;20064;-79
2024/01/04 06:00:11;;;;;;;2.30;0.70;;;7.40;99.90;;;;;;5008411;28;20045;-79
2024/01/04 06:02:40;;;;;;;1.02;0.55;;;7.40;99.90;;;;;;5011051;28;20056;-80
2024/01/04 06:05:08;;;;;;;1.55;0.57;;;7.40;99.90;;;;;;4988958;28;20504;-80
2024/01/04 06:07:35;;;;;;;0.63;0.38;;;7.30;99.90;;;;;;5005458;28;20049;-79
2024/01/04 06:10:04;;;;;;;2.30;0.65;;;7.30;99.90;;;;;;4992110;28;20103;-80
2024/01/04 06:12:31;;;;;;;0.88;0.60;;;7.30;99.90;;;;;;5006023;28;20171;-79
2024/01/04 06:14:58;;;;;;;0.90;0.70;;;7.30;99.90;;;;;;5021134;28;20114;-80
2024/01/04 06:17:26;;;;;;;1.35;0.60;;;7.30;99.90;;;;;;5009580;28;20107;-79
2024/01/04 06:19:53;;;;;;;1.45;0.52;;;7.20;99.90;;;;;;5012026;28;20053;-80
2024/01/04 06:22:20;;;;;;;1.63;0.77;;;7.20;99.90;;;;;;4996279;28;20041;-80
2024/01/04 06:24:48;;;;;;;1.75;0.68;;;7.20;99.90;;;;;;4995733;28;20045;-80
2024/01/04 06:27:15;;;;;;;1.60;0.52;;;7.10;99.90;;;;;;5031802;28;20061;-80
2024/01/04 06:29:44;;;;;;;1.58;0.57;;;7.10;99.90;;;;;;5002779;28;20072;-80
2024/01/04 06:32:11;;;;;;;1.52;0.57;;;7.10;99.90;;;;;;4999118;28;20056;-80
2024/01/04 06:34:38;;;;;;;0.80;0.40;;;7.10;1.00;;;;;;5012766;28;20513;-79
2024/01/04 06:37:05;;;;;;;2.03;0.50;;;7.00;1.00;;;;;;5018075;28;20053;-79
2024/01/04 06:39:32;;;;;;;1.10;0.80;;;7.00;1.00;;;;;;4995259;28;20049;-79
2024/01/04 06:42:04;;;;;;;1.15;0.50;;;7.00;1.00;;;;;;5018670;28;20050;-79
2024/01/04 06:44:35;;;;;;;1.30;0.50;;;7.00;1.00;;;;;;5007991;28;20518;-79
2024/01/04 06:47:14;;;;;;;1.92;0.60;;;7.00;1.00;;;;;;5019942;28;20045;-80
2024/01/04 06:49:49;;;;;;;0.47;0.25;;;6.90;99.90;;;;;;5023816;28;20136;-80
2024/01/04 06:52:17;;;;;;;0.55;0.52;;;6.90;99.90;;;;;;5039785;28;20049;-80
2024/01/04 06:54:44;;;;;;;1.35;0.43;;;6.90;99.90;;;;;;5026518;28;20049;-79
2024/01/04 06:57:11;;;;;;;1.00;0.50;;;6.90;99.90;;;;;;5004275;28;20545;-80
2024/01/04 06:59:39;;;;;;;0.80;0.50;;;6.90;99.90;;;;;;5020053;28;20053;-80
2024/01/04 07:02:07;;;;;;;0.80;0.50;;;6.80;99.90;;;;;;5036779;28;20156;-79
2024/01/04 07:04:34;;;;;;;0.93;0.32;;;6.80;99.90;;;;;;5020808;28;20049;-80
2024/01/04 07:07:01;;;;;;;0.98;0.47;;;6.80;99.90;;;;;;5010464;28;20384;-79
2024/01/04 07:09:29;;;;;;;0.40;0.35;;;6.70;99.90;;;;;;5013440;28;20079;-79
2024/01/04 07:11:57;;;;;;;0.50;0.22;;;6.70;99.90;;;;;;5033223;28;20122;-80
2024/01/04 07:14:24;;;;;;;0.55;0.55;;;6.70;99.90;;;;;;5001634;28;20506;-80
2024/01/04 07:16:51;;;;;;;0.85;0.38;;;6.70;99.90;;;;;;5019274;28;20793;-80
2024/01/04 07:19:19;;;;;;;0.63;0.40;;;6.70;1.00;;;;;;4991200;28;20075;-79
2024/01/04 07:21:47;;;;;;;0.65;0.35;;;6.60;99.90;;;;;;5026547;28;20180;-79
2024/01/04 07:24:16;;;;;;;0.55;0.35;;;6.60;1.00;;;;;;5009816;28;20069;-80
2024/01/04 07:26:43;;;;;;;0.60;0.60;;;6.60;1.00;;;;;;5009859;28;20499;-79
2024/01/04 07:29:10;;;;;;;0.32;0.30;;;6.50;1.00;;;;;;5009254;28;20532;-79
2024/01/04 07:31:37;;;;;;;0.30;0.30;;;6.40;1.00;;;;;;5031337;28;20049;-80
2024/01/04 07:34:04;;;;;;;0.30;0.30;;;6.40;1.00;;;;;;5029747;28;20060;-79
2024/01/04 07:36:34;;;;;;;0.55;0.22;;;6.30;1.00;;;;;;5012686;28;20062;-79
2024/01/04 07:39:01;;;;;;;0.60;0.30;;;6.30;1.00;;;;;;5010809;28;20071;-79
2024/01/04 07:41:28;;;;;;;0.30;0.20;;;6.20;3.20;;;;;;5007922;28;20080;-79
2024/01/04 07:43:57;;;;;;;1.13;0.45;;;6.20;76.70;;;;;;4997455;28;20037;-79
2024/01/04 07:46:25;;;;;;;0.95;0.47;;;6.20;96.60;;;;;;5026182;28;20045;-79
2024/01/04 07:48:53;;;;;;;0.30;0.20;;;6.20;99.90;;;;;;5027398;28;20073;-79
2024/01/04 07:51:25;;;;;;;0.40;0.30;;;6.10;99.90;;;;;;5029810;28;20130;-79
2024/01/04 07:53:52;;;;;;;0.68;0.30;;;6.10;99.90;;;;;;5009735;28;20049;-79
2024/01/04 07:56:19;;;;;;;1.27;0.45;;;6.10;99.90;;;;;;4995960;28;20069;-79
2024/01/04 07:58:47;;;;;;;2.85;0.40;;;6.10;99.90;;;;;;4993877;28;20463;-79
2024/01/04 08:01:14;;;;;;;0.77;0.60;;;6.20;99.90;;;;;;4996320;28;20049;-79
2024/01/04 08:03:42;;;;;;;1.40;0.77;;;6.20;99.90;;;;;;5008019;28;20574;-79
2024/01/04 08:06:11;;;;;;;0.95;0.40;;;6.20;99.90;;;;;;5024521;28;20053;-79
2024/01/04 08:08:39;;;;;;;0.95;0.43;;;6.20;99.90;;;;;;5024375;28;21145;-79
2024/01/04 08:11:07;;;;;;;0.32;0.30;;;6.20;99.90;;;;;;4990839;28;20412;-79
2024/01/04 08:13:34;;;;;;;0.55;0.40;;;6.20;99.90;;;;;;4991113;28;20596;-79
2024/01/04 08:16:02;;;;;;;0.57;0.40;;;6.20;99.90;;;;;;5008729;28;20057;-79
2024/01/04 08:18:29;;;;;;;1.05;0.40;;;6.20;99.90;;;;;;5027378;28;20133;-79
2024/01/04 08:21:01;;;;;;;1.00;0.40;;;6.20;99.90;;;;;;5028051;28;20474;-80
2024/01/04 08:23:31;;;;;;;1.08;0.45;;;6.20;99.90;;;;;;5025145;28;20063;-79
2024/01/04 08:25:58;;;;;;;0.63;0.35;;;6.20;99.90;;;;;;5002346;28;20056;-79
2024/01/04 08:28:25;;;;;;;0.90;0.30;;;6.20;99.90;;;;;;5020217;28;20056;-80
2024/01/04 08:30:52;;;;;;;0.43;0.30;;;6.20;99.90;;;;;;5001628;28;20095;-78
2024/01/04 08:33:20;;;;;;;1.00;0.40;;;6.20;99.90;;;;;;5013771;28;20060;-78
2024/01/04 08:35:47;;;;;;;0.43;0.32;;;6.20;99.90;;;;;;4993603;28;20041;-77
2024/01/04 08:38:14;;;;;;;0.30;0.30;;;6.20;99.90;;;;;;5009266;28;20140;-76
2024/01/04 08:40:41;;;;;;;0.25;0.20;;;6.20;99.90;;;;;;5018756;28;20049;-78
2024/01/04 08:43:08;;;;;;;0.45;0.30;;;6.30;99.90;;;;;;5002654;28;20495;-77
2024/01/04 08:45:36;;;;;;;1.20;0.50;;;6.30;99.90;;;;;;5026752;28;20052;-78
2024/01/04 08:48:03;;;;;;;1.50;0.30;;;6.30;99.90;;;;;;5004819;28;20737;-78
2024/01/04 08:50:30;;;;;;;0.20;0.20;;;6.40;59.90;;;;;;5015458;28;20040;-78
2024/01/04 08:52:58;;;;;;;0.35;0.25;;;6.40;11.50;;;;;;5033212;28;20840;-77
2024/01/04 08:55:25;;;;;;;0.98;0.60;;;6.50;1.00;;;;;;5008135;28;20064;-77
2024/01/04 08:57:52;;;;;;;0.35;0.35;;;6.50;1.00;;;;;;5014746;28;20068;-76
2024/01/04 09:00:19;;;;;;;0.52;0.47;;;6.60;1.00;;;;;;5013373;28;20136;-78
2024/01/04 09:02:46;;;;;;;0.43;0.38;;;6.60;99.90;;;;;;5030769;28;20117;-76
2024/01/04 09:05:13;;;;;;;0.60;0.32;;;6.70;99.90;;;;;;4999549;28;20079;-77
2024/01/04 09:07:40;;;;;;;1.13;0.77;;;6.80;99.90;;;;;;4997078;28;20381;-76
2024/01/04 09:10:08;;;;;;;0.43;0.25;;;6.80;99.90;;;;;;5013556;28;20067;-78
2024/01/04 09:12:35;;;;;;;1.55;0.40;;;6.80;99.90;;;;;;5001350;28;20072;-77
2024/01/04 09:15:05;;;;;;;0.40;0.30;;;6.80;99.90;;;;;;5015636;28;20368;-77
2024/01/04 09:17:33;;;;;;;0.82;0.40;;;6.90;99.90;;;;;;5004500;28;20053;-77
2024/01/04 09:20:00;;;;;;;0.28;0.28;;;6.90;99.90;;;;;;5019520;28;20141;-78
2024/01/04 09:22:27;;;;;;;1.42;0.75;;;7.00;99.90;;;;;;5015871;28;20060;-78
2024/01/04 09:24:55;;;;;;;0.70;0.35;;;7.00;99.90;;;;;;5003830;28;20048;-77
2024/01/04 09:27:23;;;;;;;0.45;0.30;;;7.10;99.90;;;;;;4991265;28;20156;-77
2024/01/04 09:29:52;;;;;;;0.60;0.32;;;7.10;99.90;;;;;;5010884;28;20610;-82
2024/01/04 09:32:20;;;;;;;0.60;0.30;;;7.10;99.90;;;;;;4997341;28;20065;-79
2024/01/04 09:34:47;;;;;;;0.60;0.40;;;7.20;99.90;;;;;;5010683;28;20050;-78
2024/01/04 09:37:16;;;;;;;1.02;0.45;;;7.20;99.90;;;;;;5007882;28;20049;-79
2024/01/04 09:39:43;;;;;;;1.98;0.82;;;7.30;99.90;;;;;;4994772;28;20376;-78
2024/01/04 09:42:09;;;;;;;0.98;0.60;;;7.30;99.90;;;;;;5027206;28;20118;-78
2024/01/04 09:44:37;;;;;;;1.15;0.50;;;7.30;99.90;;;;;;5009046;28;20995;-79
2024/01/04 09:47:09;;;;;;;0.52;0.40;;;7.40;99.90;;;;;;5008393;28;20083;-79
2024/01/04 09:49:37;;;;;;;0.93;0.50;;;7.40;99.90;;;;;;5011016;28;20061;-79
2024/01/04 09:52:05;;;;;;;0.85;0.50;;;7.50;99.90;;;;;;5009334;28;20049;-79
2024/01/04 09:54:32;;;;;;;1.27;0.63;;;7.50;99.90;;;;;;5011405;28;20053;-78
2024/01/04 09:57:00;;;;;;;1.75;0.77;;;7.60;99.90;;;;;;5030548;28;20698;-79
2024/01/04 09:59:29;;;;;;;1.60;1.02;;;7.60;99.90;;;;;;5011768;28;20056;-79
2024/01/04 10:01:56;;;;;;;1.25;0.55;;;7.70;99.90;;;;;;4999197;28;20456;-79
2024/01/04 10:04:24;;;;;;;1.90;0.70;;;7.70;99.90;;;;;;5012198;28;20136;-79
2024/01/04 10:06:51;;;;;;;0.93;0.65;;;7.70;99.90;;;;;;5011476;28;20135;-79
2024/01/04 10:09:19;;;;;;;1.05;0.55;;;7.80;99.90;;;;;;5012831;28;20045;-79
2024/01/04 10:11:58;;;;;;;1.50;0.60;;;7.80;99.90;;;;;;5033118;28;20548;-79
2024/01/04 10:14:26;;;;;;;1.17;0.60;;;7.80;99.90;;;;;;5029316;28;20052;-80
2024/01/04 10:16:56;;;;;;;1.92;0.60;;;7.90;99.90;;;;;;5019101;28;20451;-79
2024/01/04 10:19:23;;;;;;;1.23;0.47;;;7.90;99.90;;;;;;5016205;28;20383;-79
2024/01/04 10:21:50;;;;;;;1.50;0.50;;;8.00;99.90;;;;;;5013190;28;20229;-79
2024/01/04 10:24:22;;;;;;;0.75;0.47;;;8.00;99.90;;;;;;5033802;28;20151;-81
2024/01/04 10:26:57;;;;;;;0.88;0.43;;;8.10;99.90;;;;;;5029131;28;20106;-79
2024/01/04 10:29:28;;;;;;;1.13;0.68;;;8.20;99.90;;;;;;5015841;28;20049;-79
2024/01/04 10:32:12;;;;;;;1.33;0.80;;;8.20;99.90;;;;;;5018492;28;20057;-79
2024/01/04 10:34:39;;;;;;;0.45;0.38;;;8.30;99.90;;;;;;5031287;28;20076;-79
2024/01/04 10:37:11;;;;;;;1.10;0.50;;;8.40;99.90;;;;;;5014382;28;20049;-80
2024/01/04 10:39:38;;;;;;;0.93;0.40;;;8.50;99.90;;;;;;5032671;28;20049;-79
2024/01/04 10:42:07;;;;;;;1.13;0.30;;;8.60;99.90;;;;;;5016392;28;20041;-79
2024/01/04 10:44:34;;;;;;;0.57;0.32;;;8.60;99.90;;;;;;5000611;28;20054;-79
2024/01/04 10:47:03;;;;;;;1.08;0.50;;;8.70;99.90;;;;;;5032710;28;20072;-79
2024/01/04 10:49:31;;;;;;;1.13;0.50;;;8.70;99.90;;;;;;5011730;28;20045;-80
2024/01/04 10:52:02;;;;;;;1.10;0.60;;;8.70;99.90;;;;;;5032657;28;20398;-79
2024/01/04 10:54:34;;;;;;;1.00;0.75;;;8.70;99.90;;;;;;5012567;28;20045;-79
2024/01/04 10:57:02;;;;;;;1.02;0.52;;;8.80;99.90;;;;;;4996796;28;20060;-79
2024/01/04 10:59:30;;;;;;;0.88;0.60;;;8.80;99.90;;;;;;4999859;28;20049;-79
2024/01/04 11:01:58;;;;;;;2.65;0.60;;;8.80;99.90;;;;;;5026220;28;20047;-79
2024/01/04 11:04:27;;;;;;;2.47;0.82;;;8.80;99.90;;;;;;4993238;28;20121;-79
2024/01/04 11:07:00;;;;;;;0.63;0.60;;;8.80;99.90;;;;;;5018996;28;20053;-80
2024/01/04 11:09:27;;;;;;;0.90;0.52;;;8.90;99.90;;;;;;4998836;28;20057;-79
2024/01/04 11:11:56;;;;;;;1.13;0.60;;;8.90;99.90;;;;;;4998331;28;20047;-79
2024/01/04 11:14:24;;;;;;;3.47;0.70;;;8.90;99.90;;;;;;5002106;28;20056;-78
2024/01/04 11:17:07;;;;;;;1.80;1.02;;;8.90;99.90;;;;;;5001004;28;20132;-79
2024/01/04 11:19:46;;;;;;;0.95;0.60;;;9.00;99.90;;;;;;5032007;28;20049;-79
2024/01/04 11:22:23;;;;;;;1.25;0.57;;;9.00;99.90;;;;;;5034251;28;20052;-79
2024/01/04 11:25:28;;;;;;;1.15;0.50;;;9.00;99.90;;;;;;5028305;28;20065;-78
2024/01/04 11:27:55;;;;;;;1.63;0.50;;;9.10;99.90;;;;;;5031201;28;20731;-79
2024/01/04 11:30:22;;;;;;;0.40;0.40;;;9.10;99.90;;;;;;5011367;28;20109;-79
2024/01/04 11:32:50;;;;;;;0.88;0.50;;;9.20;99.90;;;;;;5017032;28;20053;-79
2024/01/04 11:35:21;;;;;;;0.68;0.40;;;9.20;99.90;;;;;;4996777;28;20071;-79
2024/01/04 11:37:51;;;;;;;1.27;0.47;;;9.20;99.90;;;;;;5008315;28;20053;-79
2024/01/04 11:40:26;;;;;;;1.15;0.50;;;9.30;99.90;;;;;;5033688;28;20041;-80
2024/01/04 11:42:55;;;;;;;1.23;0.57;;;9.30;99.90;;;;;;5016338;28;20045;-79
2024/01/04 11:45:23;;;;;;;0.98;0.60;;;9.30;99.50;;;;;;5019578;28;20045;-81
2024/01/04 11:47:51;;;;;;;0.90;0.45;;;9.30;99.90;;;;;;5001784;28;20057;-80
2024/01/04 11:50:22;;;;;;;0.73;0.40;;;9.40;99.90;;;;;;5013656;28;20045;-80
2024/01/04 11:52:50;;;;;;;0.85;0.30;;;9.40;99.90;;;;;;5031988;28;20288;-80
2024/01/04 11:55:26;;;;;;;0.77;0.40;;;9.50;99.90;;;;;;5016159;28;20053;-80
2024/01/04 11:58:08;;;;;;;0.60;0.40;;;9.50;99.90;;;;;;5029936;28;20132;-79
2024/01/04 12:00:37;;;;;;;0.30;0.30;;;9.60;99.90;;;;;;5012712;28;20050;-80
2024/01/04 12:03:12;;;;;;;1.02;0.52;;;9.60;99.90;;;;;;5005868;28;20045;-80
2024/01/04 12:05:47;;;;;;;0.57;0.43;;;9.70;99.90;;;;;;5029676;28;20045;-80
2024/01/04 12:08:30;;;;;;;0.38;0.38;;;9.70;99.90;;;;;;5032020;28;20067;-80
2024/01/04 12:11:09;;;;;;;0.88;0.50;;;9.70;99.90;;;;;;5006448;28;20115;-80
2024/01/04 12:13:36;;;;;;;0.88;0.52;;;9.70;99.90;;;;;;5029942;28;20045;-80
2024/01/04 12:16:05;;;;;;;0.77;0.47;;;9.80;96.70;;;;;;5027919;28;20069;-79
2024/01/04 12:18:32;;;;;;;0.95;0.40;;;9.80;95.30;;;;;;5030071;28;20130;-80
2024/01/04 12:21:03;;;;;;;0.80;0.50;;;9.80;95.90;;;;;;5016100;28;20119;-79
2024/01/04 12:23:43;;;;;;;0.60;0.45;;;9.80;92.60;;;;;;5025868;28;20136;-79
2024/01/04 12:26:10;;;;;;;0.40;0.40;;;9.80;96.10;;;;;;5009589;28;20119;-80
2024/01/04 12:28:38;;;;;;;0.60;0.50;;;9.80;96.80;;;;;;5009420;28;20092;-80
2024/01/04 12:31:07;;;;;;;1.00;0.40;;;9.80;99.90;;;;;;5001598;28;20264;-80
2024/01/04 12:33:34;;;;;;;1.42;0.80;;;9.80;99.90;;;;;;5013752;28;20494;-80
2024/01/04 12:36:02;;;;;;;1.33;0.68;;;9.80;99.90;;;;;;5015219;28;20608;-80
2024/01/04 12:38:29;;;;;;;1.77;0.73;;;9.80;99.90;;;;;;5002341;28;20494;-80
2024/01/04 12:40:57;;;;;;;0.95;0.60;;;9.80;99.90;;;;;;5032287;28;20049;-80
2024/01/04 12:43:25;;;;;;;0.90;0.60;;;9.80;99.90;;;;;;5032640;28;20065;-80
2024/01/04 12:46:06;;;;;;;1.80;0.60;;;9.80;99.90;;;;;;4994011;28;20041;-80
2024/01/04 12:48:33;;;;;;;0.77;0.50;;;9.80;99.90;;;;;;5007035;28;20053;-80
2024/01/04 12:51:14;;;;;;;1.42;1.08;;;9.80;99.90;;;;;;5019216;28;20144;-80
2024/01/04 12:53:46;;;;;;;0.90;0.50;;;9.80;99.90;;;;;;5022102;28;20055;-81
2024/01/04 12:56:14;;;;;;;1.30;0.75;;;9.70;99.90;;;;;;5023565;28;20054;-80
2024/01/04 12:58:42;;;;;;;0.88;0.70;;;9.80;99.90;;;;;;5024703;28;20434;-80
2024/01/04 13:01:09;;;;;;;1.65;0.80;;;9.80;99.90;;;;;;5020195;28;20139;-79
2024/01/04 13:03:36;;;;;;;1.20;0.70;;;9.70;99.90;;;;;;5024716;28;20049;-79